ウルムチ の空港の天気 - METARとTAF

ウルムチ地窩堡国際空港 ( ZWWW / URC ) - 中華人民共和国 新疆ウイグル自治区ウルムチ市
飛行場実況気象(Metar)
観測時間02/28 08:30 CST (02/28 00:30 UTC)
風向・風速不定 2m/s
視程4000m
天気現象もや
なし
気温-6℃
湿度73%
気圧1034hPa
METARZWWW 280030Z VRB02MPS 4000 BR NSC M06/M10 Q1034 NOSIG
過去の天気等 Google飛行場航空写真 Wunderground天気予報

過去48時間のMETAR

飛行場予報(TAF)
発表時間: 2/28 05:21 CST (2/27 21:21 UTC)
予報対象時間: 28日8時 CST ~ 1日8時 CST
風向・風速南 2m/s
視程2,000m
天気現象もや
なし
28日10時 CST ~ 28日11時 CST に徐々に
風向・風速北 2m/s
視程1,100m
天気現象
28日14時 CST ~ 28日15時 CST に徐々に
視程1,600m
天気現象
28日21時 CST ~ 28日22時 CST に徐々に
風向・風速南 3m/s
TAF ZWWW 272121Z 2800/2824 18002MPS 2000 BR NSC TXM03/08Z TNM10/23Z
BECMG 2802/2803 36002MPS 1100 FU
BECMG 2806/2807 1600 FU
BECMG 2813/2814 18003MPS